createdAt,value
2023-03-26T00:10:30.909Z,0.00
2023-03-26T00:17:52.651Z,2.22
2023-03-26T00:25:14.295Z,2.84
2023-03-26T00:28:55.894Z,3.39
2023-03-26T00:40:00.911Z,0.00
2023-03-26T00:47:19.426Z,3.13
2023-03-26T00:54:41.098Z,2.35
2023-03-26T00:58:22.784Z,3.17
2023-03-26T01:02:04.344Z,2.29
2023-03-26T01:09:26.039Z,3.63
2023-03-26T01:20:27.812Z,2.09
2023-03-26T01:24:09.396Z,3.25
2023-03-26T01:27:50.980Z,2.29
2023-03-26T01:38:52.768Z,2.77
2023-03-26T01:46:14.457Z,2.09
2023-03-26T01:49:56.007Z,2.19
2023-03-26T02:00:57.782Z,1.70
2023-03-26T02:11:59.493Z,0.00
2023-03-26T02:19:21.170Z,2.61
2023-03-26T02:26:42.810Z,3.25
2023-03-26T02:30:24.406Z,2.48
2023-03-26T02:34:06.032Z,4.42
2023-03-26T02:37:47.696Z,3.02
2023-03-26T02:41:29.378Z,5.91
2023-03-26T02:45:11.168Z,6.06
2023-03-26T02:48:52.842Z,4.06
2023-03-26T02:52:34.605Z,3.50
2023-03-26T02:56:16.424Z,5.06
2023-03-26T02:59:58.242Z,5.49
2023-03-26T03:03:40.081Z,5.90
2023-03-26T03:07:21.904Z,5.11
2023-03-26T03:11:03.642Z,5.07
2023-03-26T03:14:45.384Z,4.27
2023-03-26T03:18:27.108Z,5.32
2023-03-26T03:22:08.880Z,4.67
2023-03-26T03:25:50.507Z,3.17
2023-03-26T03:29:32.238Z,5.35
2023-03-26T03:33:14.019Z,4.78
2023-03-26T03:36:55.561Z,2.85
2023-03-26T03:40:37.169Z,3.18
2023-03-26T03:44:18.738Z,2.48
2023-03-26T03:48:00.384Z,2.09
2023-03-26T03:51:41.950Z,2.29
2023-03-26T03:55:23.557Z,2.37
2023-03-26T04:02:45.249Z,2.09
2023-03-26T04:06:26.779Z,2.09
2023-03-26T04:10:08.431Z,3.22
2023-03-26T04:13:50.054Z,3.54
2023-03-26T04:17:31.705Z,2.22
2023-03-26T04:21:13.255Z,2.86
2023-03-26T04:28:35.059Z,2.67
2023-03-26T04:35:57.007Z,2.72
2023-03-26T04:39:38.250Z,2.37
2023-03-26T04:43:19.823Z,2.29
2023-03-26T04:50:41.598Z,4.98
2023-03-26T04:54:23.127Z,2.87
2023-03-26T05:05:24.869Z,0.00
2023-03-26T05:16:26.712Z,0.00
2023-03-26T05:23:48.279Z,2.87
2023-03-26T05:27:29.912Z,3.59
2023-03-26T05:31:11.535Z,2.82
2023-03-26T05:38:33.243Z,2.48
2023-03-26T05:42:14.884Z,2.88
2023-03-26T05:45:56.575Z,4.57
2023-03-26T05:49:38.186Z,6.32
2023-03-26T05:53:19.903Z,4.29
2023-03-26T05:57:01.760Z,4.53
2023-03-26T06:00:43.386Z,3.93
2023-03-26T06:04:25.233Z,4.73
2023-03-26T06:08:06.836Z,5.61
2023-03-26T06:11:48.601Z,8.71
2023-03-26T06:15:30.349Z,4.91
2023-03-26T06:19:12.059Z,2.35
2023-03-26T06:22:53.521Z,2.90
2023-03-26T06:26:35.288Z,7.06
2023-03-26T06:30:16.860Z,2.48
2023-03-26T06:33:58.542Z,3.57
2023-03-26T06:37:40.109Z,2.29
2023-03-26T06:41:21.842Z,4.86
2023-03-26T06:52:23.646Z,2.99
2023-03-26T06:56:06.573Z,2.09
2023-03-26T07:07:06.959Z,0.00
2023-03-26T07:10:48.582Z,1.70
2023-03-26T07:14:30.241Z,3.20
2023-03-26T07:21:51.916Z,2.48
2023-03-26T07:25:33.550Z,3.81
2023-03-26T07:29:15.167Z,2.48
2023-03-26T07:32:56.793Z,2.66
2023-03-26T07:36:39.030Z,3.15
2023-03-26T07:44:00.663Z,2.09
2023-03-26T07:55:02.429Z,0.00
2023-03-26T07:58:44.020Z,1.70
2023-03-26T08:09:47.318Z,0.00
2023-03-26T08:20:49.080Z,0.00
2023-03-26T08:31:50.789Z,0.00
2023-03-26T08:39:12.484Z,2.09
2023-03-26T08:50:14.215Z,0.00
2023-03-26T08:53:55.804Z,2.48
2023-03-26T08:57:37.439Z,2.74
2023-03-26T09:08:39.239Z,3.25
2023-03-26T09:12:20.884Z,4.04
2023-03-26T09:16:02.566Z,3.38
2023-03-26T09:23:24.170Z,2.48
2023-03-26T09:27:05.775Z,2.86
2023-03-26T09:30:47.468Z,4.97
2023-03-26T09:34:29.098Z,3.13
2023-03-26T09:38:10.938Z,7.10
2023-03-26T09:41:52.914Z,7.56
2023-03-26T09:45:34.809Z,8.43
2023-03-26T09:49:16.729Z,5.59
2023-03-26T09:52:58.492Z,4.85
2023-03-26T09:56:40.104Z,2.29
2023-03-26T10:00:21.666Z,1.99
2023-03-26T10:04:03.314Z,2.99
2023-03-26T10:07:44.990Z,2.77
2023-03-26T10:11:26.698Z,8.95
2023-03-26T10:15:08.417Z,4.92
2023-03-26T10:18:50.262Z,6.22
2023-03-26T10:22:32.126Z,7.01
2023-03-26T10:26:14.064Z,5.88
2023-03-26T10:29:56.045Z,6.65
2023-03-26T10:33:37.908Z,5.84
2023-03-26T10:37:19.786Z,6.04
2023-03-26T10:41:01.537Z,5.60
2023-03-26T10:44:43.191Z,3.71
2023-03-26T10:48:24.830Z,4.10
2023-03-26T10:52:06.446Z,5.48
2023-03-26T10:55:48.148Z,5.34
2023-03-26T10:59:29.873Z,2.66
2023-03-26T11:03:11.663Z,4.42
2023-03-26T11:06:53.172Z,1.99
2023-03-26T11:17:54.938Z,0.00
2023-03-26T11:21:36.461Z,2.09
2023-03-26T11:25:18.074Z,1.70
2023-03-26T11:36:19.859Z,0.00
2023-03-26T11:47:21.618Z,0.00
2023-03-26T11:54:43.228Z,1.70
2023-03-26T11:58:24.882Z,2.29
2023-03-26T12:02:06.694Z,4.43
2023-03-26T12:05:48.195Z,2.48
2023-03-26T12:13:09.841Z,2.22
2023-03-26T12:16:52.880Z,5.22
2023-03-26T12:20:33.272Z,4.24
2023-03-26T12:27:54.987Z,2.87
2023-03-26T12:39:42.688Z,0.00
2023-03-26T12:44:50.407Z,2.09
2023-03-26T12:50:00.130Z,3.73
2023-03-26T12:53:41.810Z,3.71
2023-03-26T12:57:23.629Z,4.08
2023-03-26T13:01:05.390Z,5.46
2023-03-26T13:04:58.630Z,5.69
2023-03-26T13:08:29.085Z,7.61
2023-03-26T13:12:10.782Z,3.79
2023-03-26T13:15:52.818Z,5.33
2023-03-26T13:19:34.377Z,6.20
2023-03-26T13:23:16.157Z,5.33
2023-03-26T13:26:58.069Z,2.32
2023-03-26T13:30:39.778Z,3.79
2023-03-26T13:34:21.323Z,2.22
2023-03-26T13:38:02.938Z,2.38
2023-03-26T13:41:44.775Z,4.72
2023-03-26T13:52:46.617Z,0.00
2023-03-26T14:00:08.316Z,3.90
2023-03-26T14:07:30.097Z,6.34
2023-03-26T14:11:11.799Z,3.65
2023-03-26T14:14:53.495Z,4.32
2023-03-26T14:25:55.244Z,0.00
2023-03-26T14:29:36.879Z,2.29
2023-03-26T14:40:38.639Z,2.92
2023-03-26T14:48:00.803Z,3.39
2023-03-26T14:51:42.321Z,2.58
2023-03-26T14:55:23.983Z,3.95
2023-03-26T14:59:05.575Z,3.02
2023-03-26T15:02:47.276Z,3.43
2023-03-26T15:06:28.855Z,2.29
2023-03-26T15:17:30.608Z,2.48
2023-03-26T15:21:12.271Z,4.50
2023-03-26T15:24:53.909Z,2.19
2023-03-26T15:32:15.827Z,5.09
2023-03-26T15:35:58.002Z,4.81
2023-03-26T15:39:40.171Z,10.62
2023-03-26T15:43:22.262Z,11.42
2023-03-26T15:47:05.247Z,12.46
2023-03-26T15:50:47.387Z,9.07
2023-03-26T15:54:29.521Z,7.75
2023-03-26T15:58:11.649Z,9.03
2023-03-26T16:01:54.019Z,7.40
2023-03-26T16:05:35.868Z,5.40
2023-03-26T16:09:17.716Z,5.38
2023-03-26T16:12:59.837Z,5.72
2023-03-26T16:16:41.690Z,3.54
2023-03-26T16:20:23.496Z,5.60
2023-03-26T16:24:05.338Z,4.84
2023-03-26T16:27:47.228Z,4.44
2023-03-26T16:38:49.159Z,2.09
2023-03-26T16:42:30.857Z,2.09
2023-03-26T16:53:32.736Z,0.00
2023-03-26T17:00:55.105Z,6.34
2023-03-26T17:04:36.946Z,7.18
2023-03-26T17:08:19.024Z,3.37
2023-03-26T17:12:01.127Z,6.82
2023-03-26T17:15:43.128Z,4.94
2023-03-26T17:19:25.258Z,7.29
2023-03-26T17:23:07.462Z,10.78
2023-03-26T17:26:49.573Z,6.56
2023-03-26T17:30:31.535Z,5.99
2023-03-26T17:34:13.642Z,6.62
2023-03-26T17:37:55.975Z,8.14
2023-03-26T17:41:37.695Z,3.63
2023-03-26T17:45:19.533Z,6.83
2023-03-26T17:49:01.437Z,7.88
2023-03-26T17:52:43.508Z,10.02
2023-03-26T17:56:25.485Z,6.42
2023-03-26T18:00:07.433Z,2.71
2023-03-26T18:03:49.421Z,7.41
2023-03-26T18:14:51.510Z,0.00
2023-03-26T18:25:53.537Z,0.00
2023-03-26T18:29:35.275Z,2.09
2023-03-26T18:33:17.076Z,2.09
2023-03-26T18:36:58.971Z,4.58
2023-03-26T18:48:01.112Z,0.00
2023-03-26T18:59:03.093Z,0.00
2023-03-26T19:02:44.943Z,2.48
2023-03-26T19:10:06.910Z,2.40
2023-03-26T19:13:48.869Z,5.04
2023-03-26T19:24:50.947Z,0.00
2023-03-26T19:28:33.386Z,2.28
2023-03-26T19:35:55.879Z,2.88
2023-03-26T19:39:37.942Z,3.20
2023-03-26T19:43:19.433Z,2.30
2023-03-26T19:47:01.442Z,3.05
2023-03-26T19:50:43.469Z,2.85
2023-03-26T19:54:25.320Z,2.48
2023-03-26T20:05:27.636Z,3.76
2023-03-26T20:09:09.534Z,2.46
2023-03-26T20:20:11.598Z,2.87
2023-03-26T20:23:53.610Z,3.89
2023-03-26T20:34:55.454Z,0.00
2023-03-26T20:45:57.671Z,0.00
2023-03-26T20:56:59.194Z,3.40
2023-03-26T21:00:40.916Z,2.22
2023-03-26T21:08:02.796Z,4.21
2023-03-26T21:11:44.378Z,4.16
2023-03-26T21:15:26.024Z,5.54
2023-03-26T21:19:07.794Z,3.46
2023-03-26T21:26:29.571Z,4.08
2023-03-26T21:30:11.201Z,4.19
2023-03-26T21:33:52.929Z,3.57
2023-03-26T21:37:34.542Z,3.63
2023-03-26T21:41:16.175Z,3.67
2023-03-26T21:44:57.896Z,3.27
2023-03-26T21:48:39.451Z,2.92
2023-03-26T21:52:21.207Z,5.11
2023-03-26T21:56:02.857Z,2.62
2023-03-26T22:07:04.724Z,0.00
2023-03-26T22:10:46.176Z,1.90
2023-03-26T22:14:27.808Z,3.09
2023-03-26T22:25:29.631Z,2.77
2023-03-26T22:36:31.367Z,0.00
2023-03-26T22:47:33.167Z,0.00
2023-03-26T22:58:34.838Z,0.00
2023-03-26T23:05:56.595Z,2.55
2023-03-26T23:09:38.184Z,3.33
2023-03-26T23:13:19.785Z,2.20
2023-03-26T23:17:01.537Z,3.57
2023-03-26T23:20:42.971Z,3.63
2023-03-26T23:24:24.559Z,2.29
2023-03-26T23:35:26.297Z,0.00
2023-03-26T23:46:28.040Z,2.09
2023-03-26T23:50:09.611Z,2.48
2023-03-26T23:53:51.191Z,2.29
2023-03-26T23:57:32.793Z,1.70
